sensor_id;sensor_type;location;lat;lon;timestamp;pressure;altitude;pressure_sealevel;temperature;humidity
2875;BME280;1445;52.600;13.328;2023-11-19T00:01:43;101021.66;;;4.65;nan
2875;BME280;1445;52.600;13.328;2023-11-19T00:04:08;101007.75;;;4.66;nan
2875;BME280;1445;52.600;13.328;2023-11-19T00:06:34;100998.22;;;4.69;nan
2875;BME280;1445;52.600;13.328;2023-11-19T00:08:59;100984.53;;;4.64;nan
2875;BME280;1445;52.600;13.328;2023-11-19T00:11:25;100996.28;;;4.64;nan
2875;BME280;1445;52.600;13.328;2023-11-19T00:13:50;100973.84;;;4.62;nan
2875;BME280;1445;52.600;13.328;2023-11-19T00:16:16;100976.56;;;4.62;nan
2875;BME280;1445;52.600;13.328;2023-11-19T00:18:41;100975.47;;;4.63;nan
2875;BME280;1445;52.600;13.328;2023-11-19T00:21:06;100966.03;;;4.71;nan
2875;BME280;1445;52.600;13.328;2023-11-19T00:23:33;100950.97;;;4.68;nan
2875;BME280;1445;52.600;13.328;2023-11-19T00:25:58;100948.84;;;4.70;nan
2875;BME280;1445;52.600;13.328;2023-11-19T00:28:24;100946.09;;;4.70;nan
2875;BME280;1445;52.600;13.328;2023-11-19T00:30:49;100944.44;;;4.69;nan
2875;BME280;1445;52.600;13.328;2023-11-19T00:33:14;100936.50;;;4.68;nan
2875;BME280;1445;52.600;13.328;2023-11-19T00:35:39;100939.78;;;4.70;nan
2875;BME280;1445;52.600;13.328;2023-11-19T00:38:05;100932.09;;;4.67;nan
2875;BME280;1445;52.600;13.328;2023-11-19T00:40:30;100915.22;;;4.70;nan
2875;BME280;1445;52.600;13.328;2023-11-19T00:42:55;100905.69;;;4.72;nan
2875;BME280;1445;52.600;13.328;2023-11-19T00:45:21;100894.75;;;4.72;nan
2875;BME280;1445;52.600;13.328;2023-11-19T00:47:46;100888.78;;;4.75;nan
2875;BME280;1445;52.600;13.328;2023-11-19T00:50:12;100880.91;;;4.79;nan
2875;BME280;1445;52.600;13.328;2023-11-19T00:52:38;100872.19;;;4.82;nan
2875;BME280;1445;52.600;13.328;2023-11-19T00:55:04;100866.44;;;4.84;nan
2875;BME280;1445;52.600;13.328;2023-11-19T00:57:30;100865.69;;;4.88;nan
2875;BME280;1445;52.600;13.328;2023-11-19T00:59:55;100846.81;;;4.87;nan
2875;BME280;1445;52.600;13.328;2023-11-19T01:02:20;100832.94;;;4.93;nan
2875;BME280;1445;52.600;13.328;2023-11-19T01:04:46;100818.47;;;4.98;nan
2875;BME280;1445;52.600;13.328;2023-11-19T01:07:11;100825.88;;;4.97;nan
2875;BME280;1445;52.600;13.328;2023-11-19T01:09:37;100809.22;;;4.99;nan
2875;BME280;1445;52.600;13.328;2023-11-19T01:12:03;100800.22;;;5.03;nan
2875;BME280;1445;52.600;13.328;2023-11-19T01:14:28;100782.75;;;5.05;nan
2875;BME280;1445;52.600;13.328;2023-11-19T01:16:54;100765.00;;;5.07;nan
2875;BME280;1445;52.600;13.328;2023-11-19T01:19:19;100768.84;;;5.06;nan
2875;BME280;1445;52.600;13.328;2023-11-19T01:21:46;100763.09;;;5.08;nan
2875;BME280;1445;52.600;13.328;2023-11-19T01:24:11;100754.66;;;5.09;nan
2875;BME280;1445;52.600;13.328;2023-11-19T01:26:38;100752.72;;;5.10;nan
2875;BME280;1445;52.600;13.328;2023-11-19T01:29:03;100753.81;;;5.09;nan
2875;BME280;1445;52.600;13.328;2023-11-19T01:31:30;100748.09;;;5.15;nan
2875;BME280;1445;52.600;13.328;2023-11-19T01:33:55;100739.88;;;5.10;nan
2875;BME280;1445;52.600;13.328;2023-11-19T01:36:21;100734.72;;;5.14;nan
2875;BME280;1445;52.600;13.328;2023-11-19T01:38:46;100723.50;;;5.15;nan
2875;BME280;1445;52.600;13.328;2023-11-19T01:41:11;100712.56;;;5.15;nan
2875;BME280;1445;52.600;13.328;2023-11-19T01:43:38;100700.53;;;5.11;nan
2875;BME280;1445;52.600;13.328;2023-11-19T01:46:04;100694.03;;;5.17;nan
2875;BME280;1445;52.600;13.328;2023-11-19T01:48:30;100676.28;;;5.20;nan
2875;BME280;1445;52.600;13.328;2023-11-19T01:50:56;100663.16;;;5.22;nan
2875;BME280;1445;52.600;13.328;2023-11-19T01:53:22;100654.69;;;5.23;nan
2875;BME280;1445;52.600;13.328;2023-11-19T01:55:47;100641.56;;;5.20;nan
2875;BME280;1445;52.600;13.328;2023-11-19T01:58:13;100653.31;;;5.21;nan
2875;BME280;1445;52.600;13.328;2023-11-19T02:00:38;100650.84;;;5.19;nan
2875;BME280;1445;52.600;13.328;2023-11-19T02:03:05;100641.81;;;5.14;nan
2875;BME280;1445;52.600;13.328;2023-11-19T02:05:32;100647.28;;;5.19;nan
2875;BME280;1445;52.600;13.328;2023-11-19T02:07:58;100633.88;;;5.07;nan
2875;BME280;1445;52.600;13.328;2023-11-19T02:10:23;100622.38;;;5.05;nan
2875;BME280;1445;52.600;13.328;2023-11-19T02:12:50;100597.78;;;5.05;nan
2875;BME280;1445;52.600;13.328;2023-11-19T02:15:16;100584.97;;;5.06;nan
2875;BME280;1445;52.600;13.328;2023-11-19T02:17:44;100579.75;;;4.99;nan
2875;BME280;1445;52.600;13.328;2023-11-19T02:20:09;100584.69;;;5.02;nan
2875;BME280;1445;52.600;13.328;2023-11-19T02:22:37;100582.78;;;5.02;nan
2875;BME280;1445;52.600;13.328;2023-11-19T02:25:06;100593.97;;;5.11;nan
2875;BME280;1445;52.600;13.328;2023-11-19T02:30:16;100566.41;;;5.13;nan
2875;BME280;1445;52.600;13.328;2023-11-19T02:32:42;100548.91;;;5.14;nan
2875;BME280;1445;52.600;13.328;2023-11-19T02:35:07;100552.72;;;5.08;nan
2875;BME280;1445;52.600;13.328;2023-11-19T02:37:33;100545.09;;;5.10;nan
2875;BME280;1445;52.600;13.328;2023-11-19T02:39:59;100540.44;;;5.15;nan
2875;BME280;1445;52.600;13.328;2023-11-19T02:42:34;100524.84;;;5.16;nan
2875;BME280;1445;52.600;13.328;2023-11-19T02:45:00;100516.38;;;5.12;nan
2875;BME280;1445;52.600;13.328;2023-11-19T02:47:25;100513.09;;;5.15;nan
2875;BME280;1445;52.600;13.328;2023-11-19T02:49:50;100505.75;;;5.21;nan
2875;BME280;1445;52.600;13.328;2023-11-19T02:52:18;100517.50;;;5.16;nan
2875;BME280;1445;52.600;13.328;2023-11-19T02:54:44;100497.81;;;5.24;nan
2875;BME280;1445;52.600;13.328;2023-11-19T02:57:09;100491.25;;;5.25;nan
2875;BME280;1445;52.600;13.328;2023-11-19T02:59:37;100472.66;;;5.22;nan
2875;BME280;1445;52.600;13.328;2023-11-19T03:02:04;100479.78;;;5.29;nan
2875;BME280;1445;52.600;13.328;2023-11-19T03:04:31;100477.34;;;5.27;nan
2875;BME280;1445;52.600;13.328;2023-11-19T03:06:56;100482.81;;;5.27;nan
2875;BME280;1445;52.600;13.328;2023-11-19T03:09:23;100480.06;;;5.27;nan
2875;BME280;1445;52.600;13.328;2023-11-19T03:11:49;100489.09;;;5.28;nan
2875;BME280;1445;52.600;13.328;2023-11-19T03:14:14;100481.16;;;5.31;nan
2875;BME280;1445;52.600;13.328;2023-11-19T03:16:40;100483.34;;;5.34;nan
2875;BME280;1445;52.600;13.328;2023-11-19T03:19:05;100488.81;;;5.29;nan
2875;BME280;1445;52.600;13.328;2023-11-19T03:21:30;100488.53;;;5.31;nan
2875;BME280;1445;52.600;13.328;2023-11-19T03:23:56;100490.72;;;5.23;nan
2875;BME280;1445;52.600;13.328;2023-11-19T03:26:25;100498.38;;;5.16;nan
2875;BME280;1445;52.600;13.328;2023-11-19T03:28:50;100486.31;;;5.12;nan
2875;BME280;1445;52.600;13.328;2023-11-19T03:31:16;100473.22;;;5.09;nan
2875;BME280;1445;52.600;13.328;2023-11-19T03:33:41;100466.63;;;4.95;nan
2875;BME280;1445;52.600;13.328;2023-11-19T03:36:06;100444.78;;;4.85;nan
2875;BME280;1445;52.600;13.328;2023-11-19T03:38:32;100468.53;;;4.79;nan
2875;BME280;1445;52.600;13.328;2023-11-19T03:40:57;100480.00;;;4.71;nan
2875;BME280;1445;52.600;13.328;2023-11-19T03:43:24;100479.69;;;4.62;nan
2875;BME280;1445;52.600;13.328;2023-11-19T03:45:49;100467.94;;;4.57;nan
2875;BME280;1445;52.600;13.328;2023-11-19T03:48:14;100453.72;;;4.49;nan
2875;BME280;1445;52.600;13.328;2023-11-19T03:50:44;100462.69;;;4.45;nan
2875;BME280;1445;52.600;13.328;2023-11-19T03:53:09;100465.38;;;4.35;nan
2875;BME280;1445;52.600;13.328;2023-11-19T03:55:34;100466.47;;;4.34;nan
2875;BME280;1445;52.600;13.328;2023-11-19T03:58:00;100479.03;;;4.35;nan
2875;BME280;1445;52.600;13.328;2023-11-19T04:00:25;100458.56;;;4.32;nan
2875;BME280;1445;52.600;13.328;2023-11-19T04:02:50;100455.00;;;4.31;nan
2875;BME280;1445;52.600;13.328;2023-11-19T04:05:15;100442.44;;;4.30;nan
2875;BME280;1445;52.600;13.328;2023-11-19T04:07:41;100427.19;;;4.29;nan
2875;BME280;1445;52.600;13.328;2023-11-19T04:10:06;100439.19;;;4.34;nan
2875;BME280;1445;52.600;13.328;2023-11-19T04:12:32;100428.81;;;4.30;nan
2875;BME280;1445;52.600;13.328;2023-11-19T04:14:57;100427.19;;;4.35;nan
2875;BME280;1445;52.600;13.328;2023-11-19T04:17:22;100421.19;;;4.33;nan
2875;BME280;1445;52.600;13.328;2023-11-19T04:19:48;100417.06;;;4.30;nan
2875;BME280;1445;52.600;13.328;2023-11-19T04:22:13;100429.91;;;4.29;nan
2875;BME280;1445;52.600;13.328;2023-11-19T04:24:39;100434.56;;;4.34;nan
2875;BME280;1445;52.600;13.328;2023-11-19T04:27:05;100436.19;;;4.35;nan
2875;BME280;1445;52.600;13.328;2023-11-19T04:29:31;100419.28;;;4.33;nan
2875;BME280;1445;52.600;13.328;2023-11-19T04:31:57;100422.28;;;4.37;nan
2875;BME280;1445;52.600;13.328;2023-11-19T04:34:22;100419.56;;;4.37;nan
2875;BME280;1445;52.600;13.328;2023-11-19T04:36:47;100416.81;;;4.37;nan
2875;BME280;1445;52.600;13.328;2023-11-19T04:39:12;100437.56;;;4.38;nan
2875;BME280;1445;52.600;13.328;2023-11-19T04:41:46;100429.13;;;4.39;nan
2875;BME280;1445;52.600;13.328;2023-11-19T04:44:13;100424.72;;;4.38;nan
2875;BME280;1445;52.600;13.328;2023-11-19T04:46:38;100404.56;;;4.44;nan
2875;BME280;1445;52.600;13.328;2023-11-19T04:49:03;100404.56;;;4.44;nan
2875;BME280;1445;52.600;13.328;2023-11-19T04:51:30;100402.66;;;4.40;nan
2875;BME280;1445;52.600;13.328;2023-11-19T04:53:55;100399.63;;;4.41;nan
2875;BME280;1445;52.600;13.328;2023-11-19T04:56:21;100400.44;;;4.42;nan
2875;BME280;1445;52.600;13.328;2023-11-19T04:58:48;100376.44;;;4.39;nan
2875;BME280;1445;52.600;13.328;2023-11-19T05:01:13;100373.16;;;4.37;nan
2875;BME280;1445;52.600;13.328;2023-11-19T05:03:40;100369.09;;;4.39;nan
2875;BME280;1445;52.600;13.328;2023-11-19T05:06:06;100366.88;;;4.41;nan
2875;BME280;1445;52.600;13.328;2023-11-19T05:08:32;100357.59;;;4.37;nan
2875;BME280;1445;52.600;13.328;2023-11-19T05:11:00;100343.16;;;4.42;nan
2875;BME280;1445;52.600;13.328;2023-11-19T05:13:25;100340.16;;;4.43;nan
2875;BME280;1445;52.600;13.328;2023-11-19T05:15:50;100322.69;;;4.44;nan
2875;BME280;1445;52.600;13.328;2023-11-19T05:18:16;100327.06;;;4.40;nan
2875;BME280;1445;52.600;13.328;2023-11-19T05:20:41;100324.59;;;4.44;nan
2875;BME280;1445;52.600;13.328;2023-11-19T05:23:06;100332.25;;;4.47;nan
2875;BME280;1445;52.600;13.328;2023-11-19T05:25:32;100311.78;;;4.44;nan
2875;BME280;1445;52.600;13.328;2023-11-19T05:27:57;100318.31;;;4.43;nan
2875;BME280;1445;52.600;13.328;2023-11-19T05:30:22;100337.97;;;4.45;nan
2875;BME280;1445;52.600;13.328;2023-11-19T05:32:48;100310.41;;;4.47;nan
2875;BME280;1445;52.600;13.328;2023-11-19T05:35:13;100310.41;;;4.47;nan
2875;BME280;1445;52.600;13.328;2023-11-19T05:37:38;100298.13;;;4.44;nan
2875;BME280;1445;52.600;13.328;2023-11-19T05:40:04;100305.78;;;4.42;nan
2875;BME280;1445;52.600;13.328;2023-11-19T05:42:33;100312.06;;;4.43;nan
2875;BME280;1445;52.600;13.328;2023-11-19T05:44:59;100306.88;;;4.46;nan
2875;BME280;1445;52.600;13.328;2023-11-19T05:47:24;100287.22;;;4.49;nan
2875;BME280;1445;52.600;13.328;2023-11-19T05:49:49;100287.50;;;4.53;nan
2875;BME280;1445;52.600;13.328;2023-11-19T05:52:14;100290.50;;;4.51;nan
2875;BME280;1445;52.600;13.328;2023-11-19T05:54:40;100281.75;;;4.54;nan
2875;BME280;1445;52.600;13.328;2023-11-19T05:57:05;100266.47;;;4.53;nan
2875;BME280;1445;52.600;13.328;2023-11-19T05:59:34;100264.03;;;4.57;nan
2875;BME280;1445;52.600;13.328;2023-11-19T06:02:01;100270.56;;;4.61;nan
2875;BME280;1445;52.600;13.328;2023-11-19T06:04:27;100288.56;;;4.62;nan
2875;BME280;1445;52.600;13.328;2023-11-19T06:06:52;100276.00;;;4.66;nan
2875;BME280;1445;52.600;13.328;2023-11-19T06:09:19;100271.66;;;4.65;nan
2875;BME280;1445;52.600;13.328;2023-11-19T06:11:45;100258.56;;;4.67;nan
2875;BME280;1445;52.600;13.328;2023-11-19T06:14:12;100259.09;;;4.74;nan
2875;BME280;1445;52.600;13.328;2023-11-19T06:16:37;100253.63;;;4.69;nan
2875;BME280;1445;52.600;13.328;2023-11-19T06:19:05;100249.28;;;4.68;nan
2875;BME280;1445;52.600;13.328;2023-11-19T06:21:30;100247.06;;;4.75;nan
2875;BME280;1445;52.600;13.328;2023-11-19T06:23:55;100244.88;;;4.72;nan
2875;BME280;1445;52.600;13.328;2023-11-19T06:26:20;100245.97;;;4.76;nan
2875;BME280;1445;52.600;13.328;2023-11-19T06:28:47;100229.06;;;4.74;nan
2875;BME280;1445;52.600;13.328;2023-11-19T06:31:12;100205.00;;;4.76;nan
2875;BME280;1445;52.600;13.328;2023-11-19T06:33:41;100204.47;;;4.79;nan
2875;BME280;1445;52.600;13.328;2023-11-19T06:36:06;100198.47;;;4.77;nan
2875;BME280;1445;52.600;13.328;2023-11-19T06:38:32;100231.78;;;4.79;nan
2875;BME280;1445;52.600;13.328;2023-11-19T06:40:58;100225.50;;;4.79;nan
2875;BME280;1445;52.600;13.328;2023-11-19T06:43:23;100224.69;;;4.78;nan
2875;BME280;1445;52.600;13.328;2023-11-19T06:45:48;100208.56;;;4.82;nan
2875;BME280;1445;52.600;13.328;2023-11-19T06:48:14;100219.47;;;4.77;nan
2875;BME280;1445;52.600;13.328;2023-11-19T06:50:39;100189.44;;;4.82;nan
2875;BME280;1445;52.600;13.328;2023-11-19T06:53:04;100191.09;;;4.83;nan
2875;BME280;1445;52.600;13.328;2023-11-19T06:55:31;100210.19;;;4.83;nan
2875;BME280;1445;52.600;13.328;2023-11-19T06:57:59;100191.91;;;4.84;nan
2875;BME280;1445;52.600;13.328;2023-11-19T07:00:24;100189.97;;;4.89;nan
2875;BME280;1445;52.600;13.328;2023-11-19T07:02:49;100185.91;;;4.82;nan
2875;BME280;1445;52.600;13.328;2023-11-19T07:05:16;100203.09;;;4.87;nan
2875;BME280;1445;52.600;13.328;2023-11-19T07:07:41;100196.22;;;4.95;nan
2875;BME280;1445;52.600;13.328;2023-11-19T07:10:06;100213.44;;;4.90;nan
2875;BME280;1445;52.600;13.328;2023-11-19T07:12:34;100190.78;;;4.90;nan
2875;BME280;1445;52.600;13.328;2023-11-19T07:15:00;100185.34;;;4.90;nan
2875;BME280;1445;52.600;13.328;2023-11-19T07:17:27;100197.88;;;4.96;nan
2875;BME280;1445;52.600;13.328;2023-11-19T07:19:52;100195.69;;;4.93;nan
2875;BME280;1445;52.600;13.328;2023-11-19T07:22:17;100190.22;;;4.98;nan
2875;BME280;1445;52.600;13.328;2023-11-19T07:24:42;100188.84;;;5.06;nan
2875;BME280;1445;52.600;13.328;2023-11-19T07:27:08;100191.53;;;5.11;nan
2875;BME280;1445;52.600;13.328;2023-11-19T07:29:36;100209.31;;;5.13;nan
2875;BME280;1445;52.600;13.328;2023-11-19T07:32:01;100214.25;;;5.01;nan
2875;BME280;1445;52.600;13.328;2023-11-19T07:34:27;100205.81;;;4.92;nan
2875;BME280;1445;52.600;13.328;2023-11-19T07:36:52;100210.44;;;5.02;nan
2875;BME280;1445;52.600;13.328;2023-11-19T07:39:18;100204.97;;;5.02;nan
2875;BME280;1445;52.600;13.328;2023-11-19T07:41:43;100193.97;;;5.17;nan
2875;BME280;1445;52.600;13.328;2023-11-19T07:44:08;100194.25;;;5.21;nan
2875;BME280;1445;52.600;13.328;2023-11-19T07:46:33;100190.16;;;5.18;nan
2875;BME280;1445;52.600;13.328;2023-11-19T07:48:59;100191.25;;;5.17;nan
2875;BME280;1445;52.600;13.328;2023-11-19T07:51:24;100180.84;;;5.24;nan
2875;BME280;1445;52.600;13.328;2023-11-19T07:53:49;100186.31;;;5.19;nan
2875;BME280;1445;52.600;13.328;2023-11-19T07:56:14;100185.50;;;5.24;nan
2875;BME280;1445;52.600;13.328;2023-11-19T07:58:40;100190.97;;;5.24;nan
2875;BME280;1445;52.600;13.328;2023-11-19T08:01:06;100195.56;;;5.29;nan
2875;BME280;1445;52.600;13.328;2023-11-19T08:03:31;100184.91;;;5.32;nan
2875;BME280;1445;52.600;13.328;2023-11-19T08:05:59;100184.88;;;5.37;nan
2875;BME280;1445;52.600;13.328;2023-11-19T08:08:24;100187.06;;;5.35;nan
2875;BME280;1445;52.600;13.328;2023-11-19T08:10:49;100185.66;;;5.48;nan
2875;BME280;1445;52.600;13.328;2023-11-19T08:13:17;100173.56;;;5.54;nan
2875;BME280;1445;52.600;13.328;2023-11-19T08:15:42;100190.72;;;5.65;nan
2875;BME280;1445;52.600;13.328;2023-11-19T08:18:08;100177.09;;;5.60;nan
2875;BME280;1445;52.600;13.328;2023-11-19T08:20:34;100175.16;;;5.65;nan
2875;BME280;1445;52.600;13.328;2023-11-19T08:22:59;100176.16;;;5.80;nan
2875;BME280;1445;52.600;13.328;2023-11-19T08:25:24;100175.00;;;5.91;nan
2875;BME280;1445;52.600;13.328;2023-11-19T08:27:49;100184.88;;;5.87;nan
2875;BME280;1445;52.600;13.328;2023-11-19T08:30:15;100173.34;;;5.95;nan
2875;BME280;1445;52.600;13.328;2023-11-19T08:32:40;100152.44;;;6.09;nan
2875;BME280;1445;52.600;13.328;2023-11-19T08:35:05;100176.63;;;5.92;nan
2875;BME280;1445;52.600;13.328;2023-11-19T08:37:31;100146.78;;;6.01;nan
2875;BME280;1445;52.600;13.328;2023-11-19T08:39:56;100146.72;;;6.06;nan
2875;BME280;1445;52.600;13.328;2023-11-19T08:42:21;100154.00;;;6.20;nan
2875;BME280;1445;52.600;13.328;2023-11-19T08:44:50;100157.59;;;6.16;nan
2875;BME280;1445;52.600;13.328;2023-11-19T08:47:16;100136.03;;;6.38;nan
2875;BME280;1445;52.600;13.328;2023-11-19T08:49:43;100133.28;;;6.38;nan
2875;BME280;1445;52.600;13.328;2023-11-19T08:52:08;100138.19;;;6.41;nan
2875;BME280;1445;52.600;13.328;2023-11-19T08:54:33;100141.72;;;6.47;nan
2875;BME280;1445;52.600;13.328;2023-11-19T08:56:58;100147.19;;;6.47;nan
2875;BME280;1445;52.600;13.328;2023-11-19T08:59:24;100145.50;;;6.51;nan
2875;BME280;1445;52.600;13.328;2023-11-19T09:01:50;100147.34;;;6.56;nan
2875;BME280;1445;52.600;13.328;2023-11-19T09:04:15;100156.50;;;6.46;nan
2875;BME280;1445;52.600;13.328;2023-11-19T09:06:41;100167.34;;;6.56;nan
2875;BME280;1445;52.600;13.328;2023-11-19T09:09:07;100169.75;;;6.63;nan
2875;BME280;1445;52.600;13.328;2023-11-19T09:11:33;100169.22;;;6.61;nan
2875;BME280;1445;52.600;13.328;2023-11-19T09:13:58;100177.38;;;6.66;nan
2875;BME280;1445;52.600;13.328;2023-11-19T09:16:23;100196.78;;;6.69;nan
2875;BME280;1445;52.600;13.328;2023-11-19T09:18:49;100182.66;;;6.86;nan
2875;BME280;1445;52.600;13.328;2023-11-19T09:21:14;100175.56;;;6.85;nan
2875;BME280;1445;52.600;13.328;2023-11-19T09:23:40;100169.72;;;6.92;nan
2875;BME280;1445;52.600;13.328;2023-11-19T09:26:05;100177.59;;;6.99;nan
2875;BME280;1445;52.600;13.328;2023-11-19T09:28:34;100156.41;;;7.04;nan
2875;BME280;1445;52.600;13.328;2023-11-19T09:30:59;100156.59;;;7.13;nan
2875;BME280;1445;52.600;13.328;2023-11-19T09:33:24;100155.63;;;7.23;nan
2875;BME280;1445;52.600;13.328;2023-11-19T09:35:50;100147.28;;;7.33;nan
2875;BME280;1445;52.600;13.328;2023-11-19T09:38:15;100148.13;;;7.52;nan
2875;BME280;1445;52.600;13.328;2023-11-19T09:40:41;100149.47;;;7.55;nan
2875;BME280;1445;52.600;13.328;2023-11-19T09:43:07;100153.38;;;7.68;nan
2875;BME280;1445;52.600;13.328;2023-11-19T09:45:36;100152.06;;;7.84;nan
2875;BME280;1445;52.600;13.328;2023-11-19T09:48:04;100148.25;;;7.99;nan
2875;BME280;1445;52.600;13.328;2023-11-19T09:50:30;100138.88;;;8.00;nan
2875;BME280;1445;52.600;13.328;2023-11-19T09:52:56;100122.47;;;8.13;nan
2875;BME280;1445;52.600;13.328;2023-11-19T09:55:21;100135.00;;;8.20;nan
2875;BME280;1445;52.600;13.328;2023-11-19T09:57:46;100133.69;;;8.31;nan
2875;BME280;1445;52.600;13.328;2023-11-19T10:00:13;100138.84;;;8.38;nan
2875;BME280;1445;52.600;13.328;2023-11-19T10:02:40;100131.13;;;8.40;nan
2875;BME280;1445;52.600;13.328;2023-11-19T10:05:07;100134.78;;;8.49;nan
2875;BME280;1445;52.600;13.328;2023-11-19T10:07:32;100139.41;;;8.53;nan
2875;BME280;1445;52.600;13.328;2023-11-19T10:10:01;100121.41;;;8.61;nan
2875;BME280;1445;52.600;13.328;2023-11-19T10:12:29;100135.22;;;8.70;nan
2875;BME280;1445;52.600;13.328;2023-11-19T10:14:58;100128.19;;;8.77;nan
2875;BME280;1445;52.600;13.328;2023-11-19T10:17:32;100126.50;;;8.81;nan
2875;BME280;1445;52.600;13.328;2023-11-19T10:20:00;100133.69;;;8.91;nan
2875;BME280;1445;52.600;13.328;2023-11-19T10:22:26;100126.69;;;8.85;nan
2875;BME280;1445;52.600;13.328;2023-11-19T10:24:52;100141.88;;;8.96;nan
2875;BME280;1445;52.600;13.328;2023-11-19T10:27:17;100123.22;;;8.93;nan
2875;BME280;1445;52.600;13.328;2023-11-19T10:29:46;100122.81;;;9.00;nan
2875;BME280;1445;52.600;13.328;2023-11-19T10:32:12;100116.91;;;9.06;nan
2875;BME280;1445;52.600;13.328;2023-11-19T10:34:38;100114.34;;;9.24;nan
2875;BME280;1445;52.600;13.328;2023-11-19T10:37:04;100099.47;;;9.25;nan
2875;BME280;1445;52.600;13.328;2023-11-19T10:39:51;100102.81;;;9.36;nan
2875;BME280;1445;52.600;13.328;2023-11-19T10:42:16;100099.44;;;9.39;nan
2875;BME280;1445;52.600;13.328;2023-11-19T10:44:41;100110.97;;;9.41;nan
2875;BME280;1445;52.600;13.328;2023-11-19T10:47:07;100107.34;;;9.54;nan
2875;BME280;1445;52.600;13.328;2023-11-19T10:49:33;100105.16;;;9.65;nan
2875;BME280;1445;52.600;13.328;2023-11-19T10:52:00;100110.25;;;9.71;nan
2875;BME280;1445;52.600;13.328;2023-11-19T10:54:26;100110.00;;;9.82;nan
2875;BME280;1445;52.600;13.328;2023-11-19T10:56:55;100120.91;;;10.09;nan
2875;BME280;1445;52.600;13.328;2023-11-19T10:59:23;100116.53;;;10.31;nan
2875;BME280;1445;52.600;13.328;2023-11-19T11:01:50;100118.69;;;10.42;nan
2875;BME280;1445;52.600;13.328;2023-11-19T11:04:19;100105.47;;;10.53;nan
2875;BME280;1445;52.600;13.328;2023-11-19T11:06:47;100097.91;;;10.67;nan
2875;BME280;1445;52.600;13.328;2023-11-19T11:09:13;100096.22;;;10.89;nan
2875;BME280;1445;52.600;13.328;2023-11-19T11:11:40;100099.66;;;11.12;nan
2875;BME280;1445;52.600;13.328;2023-11-19T11:14:05;100089.94;;;11.06;nan
2875;BME280;1445;52.600;13.328;2023-11-19T11:16:32;100086.34;;;11.05;nan
2875;BME280;1445;52.600;13.328;2023-11-19T11:18:57;100086.06;;;11.24;nan
2875;BME280;1445;52.600;13.328;2023-11-19T11:21:24;100079.09;;;11.44;nan
2875;BME280;1445;52.600;13.328;2023-11-19T11:24:09;100071.00;;;11.56;nan
2875;BME280;1445;52.600;13.328;2023-11-19T11:26:53;100071.63;;;11.79;nan
2875;BME280;1445;52.600;13.328;2023-11-19T11:29:35;100053.75;;;12.03;nan
2875;BME280;1445;52.600;13.328;2023-11-19T11:39:39;100034.06;;;12.22;nan
2875;BME280;1445;52.600;13.328;2023-11-19T11:42:30;100048.00;;;12.34;nan
2875;BME280;1445;52.600;13.328;2023-11-19T11:45:11;100028.13;;;12.40;nan
2875;BME280;1445;52.600;13.328;2023-11-19T11:55:28;100010.41;;;11.86;nan
2875;BME280;1445;52.600;13.328;2023-11-19T11:57:54;100036.56;;;11.88;nan
2875;BME280;1445;52.600;13.328;2023-11-19T12:02:57;99999.38;;;11.77;nan
2875;BME280;1445;52.600;13.328;2023-11-19T12:05:23;100009.09;;;11.75;nan
2875;BME280;1445;52.600;13.328;2023-11-19T12:08:01;100021.28;;;11.82;nan
2875;BME280;1445;52.600;13.328;2023-11-19T12:10:31;100007.47;;;11.82;nan
2875;BME280;1445;52.600;13.328;2023-11-19T12:12:59;100013.16;;;11.77;nan
2875;BME280;1445;52.600;13.328;2023-11-19T12:15:25;100007.81;;;11.81;nan
2875;BME280;1445;52.600;13.328;2023-11-19T12:17:54;99996.75;;;11.72;nan
2875;BME280;1445;52.600;13.328;2023-11-19T12:20:22;99993.34;;;11.75;nan
2875;BME280;1445;52.600;13.328;2023-11-19T12:22:48;99994.16;;;11.76;nan
2875;BME280;1445;52.600;13.328;2023-11-19T12:25:14;99994.16;;;11.76;nan
2875;BME280;1445;52.600;13.328;2023-11-19T12:27:45;99995.94;;;11.71;nan
2875;BME280;1445;52.600;13.328;2023-11-19T12:30:11;99985.41;;;11.74;nan
2875;BME280;1445;52.600;13.328;2023-11-19T12:32:43;99982.16;;;11.71;nan
2875;BME280;1445;52.600;13.328;2023-11-19T12:35:10;99997.78;;;11.59;nan
2875;BME280;1445;52.600;13.328;2023-11-19T12:37:39;100000.22;;;11.52;nan
2875;BME280;1445;52.600;13.328;2023-11-19T12:40:10;100006.88;;;11.33;nan
2875;BME280;1445;52.600;13.328;2023-11-19T12:42:36;100021.47;;;11.16;nan
2875;BME280;1445;52.600;13.328;2023-11-19T12:45:02;100020.47;;;11.04;nan
2875;BME280;1445;52.600;13.328;2023-11-19T12:47:27;100037.84;;;10.95;nan
2875;BME280;1445;52.600;13.328;2023-11-19T12:49:56;100041.72;;;10.94;nan
2875;BME280;1445;52.600;13.328;2023-11-19T12:52:21;100038.16;;;10.94;nan
2875;BME280;1445;52.600;13.328;2023-11-19T12:54:48;100054.22;;;10.92;nan
2875;BME280;1445;52.600;13.328;2023-11-19T12:57:13;100054.53;;;10.90;nan
2875;BME280;1445;52.600;13.328;2023-11-19T12:59:38;100055.53;;;11.12;nan
2875;BME280;1445;52.600;13.328;2023-11-19T13:02:04;100045.84;;;11.32;nan
2875;BME280;1445;52.600;13.328;2023-11-19T13:04:31;100039.00;;;11.46;nan
2875;BME280;1445;52.600;13.328;2023-11-19T13:07:00;100019.22;;;11.62;nan
2875;BME280;1445;52.600;13.328;2023-11-19T13:09:29;100006.19;;;11.80;nan
2875;BME280;1445;52.600;13.328;2023-11-19T13:11:55;100007.59;;;12.03;nan
2875;BME280;1445;52.600;13.328;2023-11-19T13:14:21;100004.19;;;12.06;nan
2875;BME280;1445;52.600;13.328;2023-11-19T13:16:46;99988.56;;;12.10;nan
2875;BME280;1445;52.600;13.328;2023-11-19T13:19:12;99990.22;;;12.03;nan
2875;BME280;1445;52.600;13.328;2023-11-19T13:21:38;99972.94;;;12.23;nan
2875;BME280;1445;52.600;13.328;2023-11-19T13:24:05;99970.16;;;12.23;nan
2875;BME280;1445;52.600;13.328;2023-11-19T13:26:30;99956.69;;;12.22;nan
2875;BME280;1445;52.600;13.328;2023-11-19T13:28:56;99956.63;;;12.01;nan
2875;BME280;1445;52.600;13.328;2023-11-19T13:31:21;99954.53;;;11.89;nan
2875;BME280;1445;52.600;13.328;2023-11-19T13:33:47;99942.03;;;11.74;nan
2875;BME280;1445;52.600;13.328;2023-11-19T13:36:12;99947.91;;;11.64;nan
2875;BME280;1445;52.600;13.328;2023-11-19T13:38:38;99957.97;;;11.60;nan
2875;BME280;1445;52.600;13.328;2023-11-19T13:41:04;99961.75;;;11.55;nan
2875;BME280;1445;52.600;13.328;2023-11-19T13:43:30;99973.28;;;11.49;nan
2875;BME280;1445;52.600;13.328;2023-11-19T13:45:55;99957.19;;;11.51;nan
2875;BME280;1445;52.600;13.328;2023-11-19T13:48:21;99966.25;;;11.51;nan